Greater Kankakee Airport
KIKK : rendu visible

Aérodrome :











RETROUVEZ-NOUS SUR...

 
LOGIN :

S'inscrire | Disclaimer

   EN    FR    IT 

 









Légende :    VFR   VFR Marginal   IFR   IFR Intensif   IFR Très Intensif
Visi : 
Plafond : 
>= 8 km
>= 3000ft
5 à 8 km
1000 à 3000 ft
1500m à 5 km
500 à 1000 ft
800 à 1500m
200 à 500 ft
< 800m
< 200 ft
Symboles :   Orages  Brouillard  Fortes neiges  Fortes précipitations  Vent > 20 kt






- Altitude de l'aérodrome : 630 ft


KIKK - Greater Kankakee

DERNIER METAR :
  • 050035Z AUTO 07009KT 10SM OVC020 05/02 A3014 RMK AO2 T00530022

METARs EXPIRÉS :
  • 050015Z AUTO 07008KT 10SM OVC022 06/02 A3014 RMK AO2 T00560024
  • 042355Z AUTO 06006KT 10SM SCT016 OVC022 06/03 A3013 RMK AO2 T00570025 10068 20057
  • 042335Z AUTO 05009KT 10SM BKN014 OVC022 06/03 A3012 RMK AO2 T00600026
  • 042315Z AUTO 05010KT 10SM OVC014 06/03 A3012 RMK AO2 T00600027
  • 042255Z AUTO 04010KT 10SM OVC012 06/03 A3012 RMK AO2 T00620032
  • 042235Z AUTO 04008KT 10SM OVC010 06/03 A3013 RMK AO2 T00610033
  • 042215Z AUTO 03008KT 10SM OVC010 06/04 A3013 RMK AO2 T00600036
  • 042155Z AUTO 03008KT 10SM OVC012 06/04 A3012 RMK AO2 T00640040

TAF N/A



MET'MAP, la Météo Aéronautique d'un coup d'oeil ! - Copyright ORBIFLY Décembre 2007 - Disclaimer

ORBIFLY MET'MAP TEAM :

Programmation & Développement : Alexandra Zaïnal
Sur une idée originale de : Baudouin d'Aumeries
Assistance à la programmation : Marc-Olivier Méhu
Soutien technique & logistique : Manuel Goepfert

Contact : metmap@orbifly.com




SOURCES & CREDITS :

   NOAA       Earth
Advisory